createdAt,value
2019-02-21T00:01:10.740Z,5.60
2019-02-21T00:03:39.345Z,5.60
2019-02-21T00:06:08.131Z,5.50
2019-02-21T00:08:36.922Z,5.50
2019-02-21T00:11:05.667Z,5.40
2019-02-21T00:13:34.347Z,5.40
2019-02-21T00:16:03.133Z,5.30
2019-02-21T00:18:31.926Z,5.30
2019-02-21T00:21:00.704Z,5.30
2019-02-21T00:23:29.375Z,5.20
2019-02-21T00:25:58.118Z,5.20
2019-02-21T00:28:27.218Z,5.20
2019-02-21T00:30:55.864Z,5.20
2019-02-21T00:33:24.580Z,5.10
2019-02-21T00:35:53.328Z,5.10
2019-02-21T00:38:22.111Z,5.10
2019-02-21T00:40:50.838Z,5.10
2019-02-21T00:43:19.530Z,5.00
2019-02-21T00:45:48.266Z,4.90
2019-02-21T00:48:16.963Z,4.90
2019-02-21T00:50:45.635Z,4.90
2019-02-21T00:53:14.425Z,4.90
2019-02-21T00:55:43.250Z,4.90
2019-02-21T00:58:12.038Z,4.90
2019-02-21T01:00:46.472Z,4.80
2019-02-21T01:03:10.964Z,4.80
2019-02-21T01:05:39.731Z,4.80
2019-02-21T01:08:09.092Z,4.80
2019-02-21T01:10:37.774Z,4.80
2019-02-21T01:13:06.458Z,4.80
2019-02-21T01:15:35.245Z,4.80
2019-02-21T01:18:04.277Z,4.80
2019-02-21T01:20:32.919Z,4.70
2019-02-21T01:23:02.158Z,4.70
2019-02-21T01:25:31.144Z,4.70
2019-02-21T01:28:00.246Z,4.60
2019-02-21T01:30:28.885Z,4.60
2019-02-21T01:32:57.551Z,4.50
2019-02-21T01:35:26.260Z,4.50
2019-02-21T01:37:54.939Z,4.50
2019-02-21T01:40:23.665Z,4.50
2019-02-21T01:42:52.455Z,4.60
2019-02-21T01:45:40.552Z,4.50
2019-02-21T01:48:09.236Z,4.50
2019-02-21T01:50:38.148Z,4.50
2019-02-21T01:53:07.263Z,4.50
2019-02-21T01:55:35.908Z,4.40
2019-02-21T01:58:04.735Z,4.20
2019-02-21T02:00:33.479Z,4.20
2019-02-21T02:03:02.266Z,4.20
2019-02-21T02:05:30.850Z,4.30
2019-02-21T02:07:59.635Z,4.30
2019-02-21T02:10:28.459Z,4.30
2019-02-21T02:12:57.554Z,4.20
2019-02-21T02:15:26.555Z,4.20
2019-02-21T02:17:55.741Z,4.20
2019-02-21T02:20:24.486Z,4.40
2019-02-21T02:22:53.590Z,4.50
2019-02-21T02:25:22.205Z,4.60
2019-02-21T02:27:50.950Z,4.80
2019-02-21T02:30:19.651Z,4.80
2019-02-21T02:32:48.424Z,4.80
2019-02-21T02:35:17.351Z,4.90
2019-02-21T02:37:46.106Z,4.90
2019-02-21T02:40:14.929Z,5.00
2019-02-21T02:42:43.606Z,5.00
2019-02-21T02:45:12.402Z,4.90
2019-02-21T02:47:41.043Z,4.90
2019-02-21T02:50:09.892Z,4.90
2019-02-21T02:52:38.737Z,4.80
2019-02-21T02:55:07.546Z,4.80
2019-02-21T02:57:36.302Z,4.70
2019-02-21T03:00:08.199Z,4.70
2019-02-21T03:02:36.938Z,4.70
2019-02-21T03:05:07.158Z,4.70
2019-02-21T03:07:35.841Z,4.70
2019-02-21T03:10:10.322Z,4.80
2019-02-21T03:12:39.044Z,4.90
2019-02-21T03:15:08.699Z,4.90
2019-02-21T03:17:37.371Z,4.90
2019-02-21T03:20:08.772Z,4.90
2019-02-21T03:22:37.467Z,4.90
2019-02-21T03:25:07.449Z,4.90
2019-02-21T03:27:36.209Z,4.90
2019-02-21T03:30:11.637Z,4.90
2019-02-21T03:32:37.060Z,4.90
2019-02-21T03:35:07.674Z,5.00
2019-02-21T03:37:36.397Z,5.00
2019-02-21T03:40:07.923Z,4.80
2019-02-21T03:42:36.677Z,5.00
2019-02-21T03:45:08.725Z,5.00
2019-02-21T03:47:37.996Z,5.10
2019-02-21T03:50:09.071Z,5.20
2019-02-21T03:52:37.711Z,5.30
2019-02-21T03:55:07.959Z,5.20
2019-02-21T03:57:36.863Z,5.20
2019-02-21T04:00:11.429Z,5.30
2019-02-21T04:02:40.135Z,5.30
2019-02-21T04:05:09.008Z,5.40
2019-02-21T04:07:37.647Z,5.40
2019-02-21T04:10:08.475Z,5.40
2019-02-21T04:12:37.322Z,5.40
2019-02-21T04:15:09.142Z,5.40
2019-02-21T04:17:37.956Z,5.30
2019-02-21T04:20:10.329Z,5.30
2019-02-21T04:22:38.964Z,5.20
2019-02-21T04:25:07.695Z,5.20
2019-02-21T04:27:36.315Z,5.20
2019-02-21T04:30:05.765Z,5.10
2019-02-21T04:32:36.238Z,5.00
2019-02-21T04:35:06.391Z,5.00
2019-02-21T04:37:35.016Z,4.90
2019-02-21T04:40:04.338Z,4.90
2019-02-21T04:45:02.594Z,5.10
2019-02-21T04:47:31.482Z,4.70
2019-02-21T04:50:00.145Z,4.70
2019-02-21T04:52:30.550Z,4.70
2019-02-21T04:54:59.131Z,4.70
2019-02-21T04:57:27.859Z,4.60
2019-02-21T04:59:56.417Z,4.60
2019-02-21T05:02:29.065Z,4.70
2019-02-21T05:04:55.449Z,4.60
2019-02-21T05:07:24.018Z,4.60
2019-02-21T05:09:57.951Z,4.60
2019-02-21T05:12:23.265Z,4.60
2019-02-21T05:14:51.850Z,4.60
2019-02-21T05:17:20.472Z,4.50
2019-02-21T05:19:49.083Z,4.60
2019-02-21T05:22:18.140Z,4.50
2019-02-21T05:24:46.823Z,4.50
2019-02-21T05:27:17.081Z,4.50
2019-02-21T05:29:45.678Z,4.50
2019-02-21T05:32:15.967Z,4.40
2019-02-21T05:34:58.558Z,4.40
2019-02-21T05:37:31.852Z,4.40
2019-02-21T05:40:04.940Z,4.30
2019-02-21T05:42:35.198Z,4.20
2019-02-21T05:45:17.713Z,4.30
2019-02-21T05:48:04.314Z,4.30
2019-02-21T05:50:50.714Z,4.40
2019-02-21T05:53:20.996Z,4.40
2019-02-21T05:55:51.523Z,4.40
2019-02-21T05:58:37.150Z,4.40
2019-02-21T06:01:10.204Z,4.30
2019-02-21T06:03:43.587Z,4.30
2019-02-21T06:06:13.852Z,4.30
2019-02-21T06:08:56.377Z,4.30
2019-02-21T06:11:29.322Z,4.20
2019-02-21T06:13:59.636Z,4.10
2019-02-21T06:16:36.056Z,4.00
2019-02-21T06:19:06.423Z,4.00
2019-02-21T06:21:36.737Z,4.00
2019-02-21T06:24:12.638Z,3.90
2019-02-21T06:26:42.965Z,4.00
2019-02-21T06:29:16.083Z,4.00
2019-02-21T06:31:44.679Z,4.00
2019-02-21T06:34:13.820Z,4.00
2019-02-21T06:36:42.422Z,4.10
2019-02-21T06:39:11.189Z,4.00
2019-02-21T06:41:39.830Z,3.90
2019-02-21T06:44:08.454Z,4.00
2019-02-21T06:46:37.040Z,4.00
2019-02-21T06:49:05.626Z,4.00
2019-02-21T06:51:34.771Z,4.10
2019-02-21T06:54:03.362Z,4.10
2019-02-21T06:56:32.446Z,4.10
2019-02-21T06:59:01.152Z,4.30
2019-02-21T07:01:29.864Z,4.40
2019-02-21T07:03:58.605Z,4.40
2019-02-21T07:06:31.789Z,4.50
2019-02-21T07:08:59.923Z,4.50
2019-02-21T07:11:28.983Z,4.50
2019-02-21T07:13:57.639Z,4.70
2019-02-21T07:16:26.657Z,4.80
2019-02-21T07:18:55.257Z,4.90
2019-02-21T07:21:24.003Z,5.00
2019-02-21T07:23:53.139Z,5.10
2019-02-21T07:26:21.786Z,5.40
2019-02-21T07:28:50.467Z,5.50
2019-02-21T07:31:28.096Z,5.60
2019-02-21T07:33:49.473Z,5.80
2019-02-21T07:36:19.465Z,5.90
2019-02-21T07:38:48.315Z,6.20
2019-02-21T07:41:18.695Z,6.30
2019-02-21T07:43:47.427Z,6.30
2019-02-21T07:46:16.066Z,6.30
2019-02-21T07:48:44.756Z,6.30
2019-02-21T07:51:13.676Z,6.20
2019-02-21T07:53:42.469Z,6.20
2019-02-21T07:56:11.213Z,6.30
2019-02-21T07:58:39.902Z,6.50
2019-02-21T08:01:08.991Z,6.60
2019-02-21T08:03:44.977Z,6.70
2019-02-21T08:06:08.719Z,6.90
2019-02-21T08:08:37.410Z,7.00
2019-02-21T08:11:07.266Z,7.10
2019-02-21T08:13:36.200Z,7.50
2019-02-21T08:16:05.343Z,7.90
2019-02-21T08:18:33.946Z,8.10
2019-02-21T08:21:02.907Z,7.90
2019-02-21T08:23:32.439Z,7.80
2019-02-21T08:26:01.495Z,7.90
2019-02-21T08:28:30.251Z,8.20
2019-02-21T08:30:58.940Z,8.20
2019-02-21T08:33:29.201Z,8.30
2019-02-21T08:35:58.062Z,8.60
2019-02-21T08:38:27.174Z,8.70
2019-02-21T08:40:57.198Z,8.70
2019-02-21T08:43:26.044Z,8.80
2019-02-21T08:45:57.539Z,8.90
2019-02-21T08:48:27.042Z,9.00
2019-02-21T08:50:55.571Z,8.80
2019-02-21T08:53:24.262Z,8.70
2019-02-21T08:55:52.982Z,8.80
2019-02-21T08:58:21.728Z,8.90
2019-02-21T09:00:50.470Z,8.60
2019-02-21T09:03:19.663Z,8.60
2019-02-21T09:05:49.793Z,8.70
2019-02-21T09:08:18.522Z,8.90
2019-02-21T09:10:47.864Z,9.10
2019-02-21T09:13:16.811Z,9.30
2019-02-21T09:15:46.531Z,9.30
2019-02-21T09:18:15.554Z,9.40
2019-02-21T09:20:44.239Z,9.30
2019-02-21T09:23:15.757Z,9.30
2019-02-21T09:25:44.826Z,9.40
2019-02-21T09:28:15.715Z,9.60
2019-02-21T09:30:44.087Z,10.00
2019-02-21T09:33:17.349Z,10.60
2019-02-21T09:35:43.062Z,11.40
2019-02-21T09:38:11.662Z,12.30
2019-02-21T09:40:42.675Z,12.90
2019-02-21T09:43:11.101Z,12.20
2019-02-21T09:45:42.209Z,11.70
2019-02-21T09:48:12.002Z,11.60
2019-02-21T09:50:40.808Z,11.70
2019-02-21T09:53:09.832Z,11.90
2019-02-21T09:55:38.471Z,12.10
2019-02-21T09:58:07.302Z,12.30
2019-02-21T10:00:36.134Z,12.30
2019-02-21T10:03:04.981Z,12.40
2019-02-21T10:05:33.664Z,12.30
2019-02-21T10:08:02.321Z,12.50
2019-02-21T10:10:30.991Z,12.20
2019-02-21T10:12:59.820Z,12.30
2019-02-21T10:15:31.300Z,12.50
2019-02-21T10:17:58.994Z,12.70
2019-02-21T10:20:27.782Z,12.40
2019-02-21T10:25:27.805Z,11.70
2019-02-21T10:27:58.879Z,11.50
2019-02-21T10:30:26.939Z,11.50
2019-02-21T10:32:55.585Z,11.70
2019-02-21T10:35:24.333Z,11.70
2019-02-21T10:37:53.017Z,11.60
2019-02-21T10:40:22.127Z,11.50
2019-02-21T10:42:50.861Z,11.60
2019-02-21T10:45:21.774Z,11.80
2019-02-21T10:47:50.469Z,11.70
2019-02-21T10:50:20.340Z,11.70
2019-02-21T10:52:49.467Z,11.60
2019-02-21T10:55:18.807Z,11.60
2019-02-21T10:57:47.575Z,11.90
2019-02-21T11:00:30.373Z,12.00
2019-02-21T11:02:59.167Z,12.00
2019-02-21T11:05:28.217Z,12.20
2019-02-21T11:07:56.940Z,12.50
2019-02-21T11:10:31.666Z,12.80
2019-02-21T11:13:00.396Z,13.00
2019-02-21T11:15:29.143Z,13.10
2019-02-21T11:17:57.823Z,13.10
2019-02-21T11:20:26.504Z,12.80
2019-02-21T11:22:55.117Z,12.90
2019-02-21T11:25:24.126Z,12.80
2019-02-21T11:27:52.717Z,12.60
2019-02-21T11:30:23.030Z,12.50
2019-02-21T11:32:51.713Z,12.60
2019-02-21T11:35:20.510Z,12.70
2019-02-21T11:37:49.188Z,12.60
2019-02-21T11:40:18.280Z,12.50
2019-02-21T11:42:48.110Z,12.60
2019-02-21T11:45:18.345Z,12.70
2019-02-21T11:47:47.201Z,12.90
2019-02-21T11:50:22.102Z,13.00
2019-02-21T11:52:51.184Z,13.00
2019-02-21T11:55:25.393Z,13.20
2019-02-21T11:57:54.511Z,13.20
2019-02-21T12:00:30.745Z,13.20
2019-02-21T12:02:59.481Z,13.20
2019-02-21T12:05:31.027Z,13.10
2019-02-21T12:07:58.486Z,13.20
2019-02-21T12:10:27.198Z,13.30
2019-02-21T12:12:55.919Z,13.40
2019-02-21T12:15:24.642Z,13.30
2019-02-21T12:17:53.244Z,13.40
2019-02-21T12:20:22.112Z,13.50
2019-02-21T12:22:50.750Z,13.80
2019-02-21T12:25:22.561Z,13.70
2019-02-21T12:27:51.300Z,13.60
2019-02-21T12:30:20.734Z,13.50
2019-02-21T12:32:49.834Z,13.70
2019-02-21T12:35:29.178Z,13.80
2019-02-21T12:37:49.252Z,13.70
2019-02-21T12:40:19.983Z,13.50
2019-02-21T12:42:48.735Z,13.30
2019-02-21T12:45:22.035Z,13.30
2019-02-21T12:47:53.875Z,13.30
2019-02-21T12:50:21.149Z,13.30
2019-02-21T12:52:49.964Z,13.60
2019-02-21T12:55:26.954Z,13.70
2019-02-21T12:57:48.759Z,14.10
2019-02-21T13:00:21.456Z,14.00
2019-02-21T13:02:50.331Z,13.90
2019-02-21T13:05:19.127Z,13.80
2019-02-21T13:07:47.869Z,13.80
2019-02-21T13:10:18.839Z,13.40
2019-02-21T13:12:47.524Z,13.40
2019-02-21T13:15:16.573Z,13.20
2019-02-21T13:17:45.365Z,13.00
2019-02-21T13:20:15.203Z,12.90
2019-02-21T13:22:43.864Z,12.70
2019-02-21T13:25:15.420Z,12.70
2019-02-21T13:27:44.090Z,12.80
2019-02-21T13:30:15.228Z,12.60
2019-02-21T13:32:43.859Z,12.60
2019-02-21T13:35:12.648Z,12.90
2019-02-21T13:37:41.386Z,12.90
2019-02-21T13:40:12.884Z,12.90
2019-02-21T13:42:42.084Z,13.10
2019-02-21T13:45:13.058Z,13.30
2019-02-21T13:47:42.087Z,13.50
2019-02-21T13:50:18.247Z,13.60
2019-02-21T13:52:47.664Z,13.60
2019-02-21T13:55:16.420Z,13.60
2019-02-21T13:57:46.846Z,13.50
2019-02-21T14:00:20.647Z,13.60
2019-02-21T14:02:49.383Z,13.90
2019-02-21T14:05:18.567Z,14.20
2019-02-21T14:07:47.210Z,14.00
2019-02-21T14:10:15.970Z,13.60
2019-02-21T14:12:44.622Z,13.50
2019-02-21T14:15:16.266Z,13.50
2019-02-21T14:17:46.669Z,13.20
2019-02-21T14:20:15.778Z,13.30
2019-02-21T14:22:44.413Z,13.50
2019-02-21T14:25:13.098Z,13.40
2019-02-21T14:27:42.338Z,13.30
2019-02-21T14:30:21.461Z,13.20
2019-02-21T14:32:50.097Z,13.20
2019-02-21T14:35:20.051Z,13.20
2019-02-21T14:37:48.653Z,13.40
2019-02-21T14:40:17.865Z,13.50
2019-02-21T14:42:46.712Z,13.30
2019-02-21T14:45:20.849Z,13.30
2019-02-21T14:47:51.384Z,13.50
2019-02-21T14:50:19.934Z,13.60
2019-02-21T14:52:48.614Z,13.50
2019-02-21T14:55:17.968Z,13.40
2019-02-21T14:57:46.873Z,13.50
2019-02-21T15:00:27.019Z,13.40
2019-02-21T15:02:57.677Z,13.50
2019-02-21T15:05:25.874Z,13.50
2019-02-21T15:07:54.488Z,13.50
2019-02-21T15:10:23.070Z,13.50
2019-02-21T15:12:52.047Z,13.50
2019-02-21T15:15:25.818Z,13.40
2019-02-21T15:18:04.463Z,13.40
2019-02-21T15:20:35.819Z,13.40
2019-02-21T15:22:55.208Z,13.40
2019-02-21T15:25:24.051Z,13.40
2019-02-21T15:27:53.178Z,13.50
2019-02-21T15:30:23.390Z,13.50
2019-02-21T15:32:52.073Z,13.30
2019-02-21T15:35:20.661Z,13.30
2019-02-21T15:37:49.409Z,13.50
2019-02-21T15:40:18.074Z,13.60
2019-02-21T15:42:46.796Z,13.40
2019-02-21T15:45:26.761Z,13.20
2019-02-21T15:47:55.452Z,13.30
2019-02-21T15:50:24.144Z,13.20
2019-02-21T15:52:54.593Z,13.10
2019-02-21T15:55:23.507Z,13.00
2019-02-21T15:58:03.456Z,13.00
2019-02-21T16:00:24.041Z,12.90
2019-02-21T16:02:54.605Z,12.90
2019-02-21T16:05:23.492Z,12.90
2019-02-21T16:07:52.174Z,12.90
2019-02-21T16:10:25.249Z,12.90
2019-02-21T16:12:54.290Z,12.80
2019-02-21T16:15:23.499Z,12.80
2019-02-21T16:17:52.213Z,12.80
2019-02-21T16:20:21.284Z,12.80
2019-02-21T16:22:49.996Z,12.70
2019-02-21T16:25:34.986Z,12.70
2019-02-21T16:28:03.978Z,12.60
2019-02-21T16:30:32.595Z,12.70
2019-02-21T16:33:01.257Z,12.70
2019-02-21T16:35:30.457Z,12.60
2019-02-21T16:37:59.200Z,12.60
2019-02-21T16:40:27.929Z,12.50
2019-02-21T16:42:56.566Z,12.50
2019-02-21T16:45:25.544Z,12.50
2019-02-21T16:47:54.121Z,12.40
2019-02-21T16:50:29.844Z,12.40
2019-02-21T16:52:53.115Z,12.40
2019-02-21T16:55:25.038Z,12.30
2019-02-21T16:57:53.924Z,12.20
2019-02-21T17:00:23.675Z,12.20
2019-02-21T17:02:52.456Z,12.20
2019-02-21T17:05:21.514Z,12.20
2019-02-21T17:07:50.191Z,12.10
2019-02-21T17:10:18.959Z,12.00
2019-02-21T17:12:47.692Z,12.00
2019-02-21T17:15:19.714Z,12.00
2019-02-21T17:17:48.740Z,11.90
2019-02-21T17:20:19.081Z,11.80
2019-02-21T17:22:47.926Z,11.70
2019-02-21T17:25:16.953Z,11.60
2019-02-21T17:27:46.101Z,11.70
2019-02-21T17:30:18.920Z,11.60
2019-02-21T17:32:47.503Z,11.60
2019-02-21T17:35:16.393Z,11.70
2019-02-21T17:38:06.375Z,11.70
2019-02-21T17:40:35.117Z,11.70
2019-02-21T17:43:03.735Z,11.60
2019-02-21T17:45:32.384Z,11.50
2019-02-21T17:48:01.012Z,11.50
2019-02-21T17:50:29.753Z,11.40
2019-02-21T17:52:58.766Z,11.30
2019-02-21T17:55:27.431Z,11.30
2019-02-21T17:57:57.854Z,11.30
2019-02-21T18:00:31.223Z,11.30
2019-02-21T18:02:59.882Z,11.20
2019-02-21T18:05:28.516Z,11.20
2019-02-21T18:07:57.428Z,11.10
2019-02-21T18:10:26.047Z,11.20
2019-02-21T18:12:54.817Z,11.20
2019-02-21T18:15:23.558Z,11.20
2019-02-21T18:17:52.289Z,11.30
2019-02-21T18:20:20.983Z,11.20
2019-02-21T18:22:50.022Z,11.20
2019-02-21T18:25:24.999Z,11.20
2019-02-21T18:27:53.546Z,11.20
2019-02-21T18:30:22.323Z,11.20
2019-02-21T18:32:51.120Z,11.30
2019-02-21T18:35:19.721Z,11.10
2019-02-21T18:37:48.375Z,11.20
2019-02-21T18:40:20.735Z,11.20
2019-02-21T18:42:49.949Z,11.10
2019-02-21T18:45:18.695Z,11.10
2019-02-21T18:47:47.341Z,11.10
2019-02-21T18:50:16.090Z,11.10
2019-02-21T18:52:44.683Z,11.00
2019-02-21T18:55:13.902Z,11.10
2019-02-21T18:57:42.640Z,11.00
2019-02-21T19:00:24.172Z,10.90
2019-02-21T19:02:53.038Z,11.00
2019-02-21T19:05:22.541Z,11.00
2019-02-21T19:08:00.826Z,11.10
2019-02-21T19:10:22.614Z,11.10
2019-02-21T19:12:51.299Z,11.00
2019-02-21T19:15:20.917Z,11.00
2019-02-21T19:17:49.638Z,10.90
2019-02-21T19:20:19.496Z,10.80
2019-02-21T19:22:48.250Z,10.90
2019-02-21T19:25:17.030Z,10.80
2019-02-21T19:27:45.921Z,10.90
2019-02-21T19:30:17.693Z,10.80
2019-02-21T19:32:46.404Z,10.80
2019-02-21T19:35:15.882Z,10.90
2019-02-21T19:37:44.650Z,10.90
2019-02-21T19:40:14.395Z,10.80
2019-02-21T19:42:43.145Z,10.80
2019-02-21T19:45:12.171Z,10.80
2019-02-21T19:47:40.930Z,10.80
2019-02-21T19:50:10.153Z,10.80
2019-02-21T19:52:38.908Z,10.80
2019-02-21T19:55:11.715Z,10.80
2019-02-21T19:57:40.395Z,10.80
2019-02-21T20:00:12.335Z,10.80
2019-02-21T20:02:41.081Z,10.80
2019-02-21T20:05:10.006Z,10.80
2019-02-21T20:07:38.801Z,10.80
2019-02-21T20:10:08.832Z,10.80
2019-02-21T20:12:37.831Z,10.70
2019-02-21T20:15:11.315Z,10.70
2019-02-21T20:17:40.011Z,10.70
2019-02-21T20:20:11.844Z,10.70
2019-02-21T20:22:40.454Z,10.80
2019-02-21T20:25:09.182Z,10.80
2019-02-21T20:27:37.840Z,10.90
2019-02-21T20:30:09.810Z,10.80
2019-02-21T20:32:38.775Z,10.70
2019-02-21T20:35:07.996Z,10.80
2019-02-21T20:37:36.674Z,10.80
2019-02-21T20:40:07.982Z,10.80
2019-02-21T20:42:36.769Z,10.90
2019-02-21T20:45:09.231Z,11.00
2019-02-21T20:47:38.332Z,10.90
2019-02-21T20:50:10.094Z,10.90
2019-02-21T20:52:39.312Z,10.90
2019-02-21T20:55:09.832Z,10.90
2019-02-21T20:57:38.830Z,10.80
2019-02-21T21:00:13.196Z,10.80
2019-02-21T21:02:42.234Z,10.80
2019-02-21T21:05:10.934Z,10.80
2019-02-21T21:07:39.699Z,10.90
2019-02-21T21:10:12.360Z,10.90
2019-02-21T21:12:41.148Z,10.80
2019-02-21T21:15:12.278Z,10.80
2019-02-21T21:17:41.041Z,10.90
2019-02-21T21:20:16.961Z,10.80
2019-02-21T21:22:44.800Z,10.80
2019-02-21T21:25:17.853Z,10.80
2019-02-21T21:27:46.610Z,10.80
2019-02-21T21:30:16.426Z,10.70
2019-02-21T21:32:45.378Z,10.70
2019-02-21T21:35:14.383Z,10.70
2019-02-21T21:37:43.042Z,10.70
2019-02-21T21:40:13.980Z,10.70
2019-02-21T21:42:42.767Z,10.70
2019-02-21T21:45:14.203Z,10.70
2019-02-21T21:47:42.850Z,10.70
2019-02-21T21:50:14.304Z,10.60
2019-02-21T21:52:43.341Z,10.60
2019-02-21T21:55:12.027Z,10.60
2019-02-21T21:57:40.941Z,10.60
2019-02-21T22:00:12.631Z,10.50
2019-02-21T22:02:41.299Z,10.50
2019-02-21T22:05:10.350Z,10.50
2019-02-21T22:07:38.986Z,10.40
2019-02-21T22:10:12.317Z,10.40
2019-02-21T22:12:41.114Z,10.40
2019-02-21T22:15:12.767Z,10.40
2019-02-21T22:17:42.179Z,10.30
2019-02-21T22:20:11.161Z,10.40
2019-02-21T22:22:40.294Z,10.30
2019-02-21T22:25:11.198Z,10.30
2019-02-21T22:27:39.778Z,10.30
2019-02-21T22:30:13.887Z,10.30
2019-02-21T22:32:42.566Z,10.30
2019-02-21T22:35:11.355Z,10.30
2019-02-21T22:37:40.008Z,10.30
2019-02-21T22:40:10.985Z,10.30
2019-02-21T22:42:39.572Z,10.20
2019-02-21T22:45:09.523Z,10.10
2019-02-21T22:47:38.178Z,10.10
2019-02-21T22:50:10.004Z,10.20
2019-02-21T22:52:38.580Z,10.20
2019-02-21T22:55:10.181Z,10.20
2019-02-21T22:57:38.528Z,10.20
2019-02-21T23:00:31.430Z,10.10
2019-02-21T23:03:01.527Z,10.10
2019-02-21T23:05:52.959Z,10.00
2019-02-21T23:08:43.535Z,10.00
2019-02-21T23:11:12.524Z,10.10
2019-02-21T23:13:41.182Z,10.10
2019-02-21T23:16:10.172Z,10.00
2019-02-21T23:18:39.009Z,10.10
2019-02-21T23:21:07.985Z,10.10
2019-02-21T23:23:36.799Z,10.00
2019-02-21T23:26:05.493Z,10.10
2019-02-21T23:28:34.519Z,10.00
2019-02-21T23:31:03.822Z,10.00
2019-02-21T23:33:34.037Z,10.00
2019-02-21T23:36:03.063Z,10.00
2019-02-21T23:38:31.737Z,10.00
2019-02-21T23:41:00.857Z,9.90
2019-02-21T23:43:31.487Z,9.90
2019-02-21T23:46:00.140Z,9.90
2019-02-21T23:48:28.826Z,10.00
2019-02-21T23:50:57.952Z,9.90
2019-02-21T23:53:28.870Z,9.80
2019-02-21T23:55:57.626Z,9.90
2019-02-21T23:58:26.512Z,9.90
